Time;durP1;ratioP1;P1;durP2;ratioP2;P2;SDS_P1;SDS_P2;PMS_P1;PMS_P2;Temp;Humidity;BMP_temperature;BMP_pressure;BME280_temperature;BME280_humidity;BME280_pressure;Samples;Min_cycle;Max_cycle;Signal;HPM_P1;HPM_P2
2021/09/12 12:59:30;;;;;;;4.70;1.35;;;;;;;23.47;48.66;101432.19;2556284;30;136759;-39
2021/09/12 13:01:57;;;;;;;6.28;2.00;;;;;;;23.64;48.60;101425.44;2572153;30;137253;-37
2021/09/12 13:04:25;;;;;;;4.90;1.80;;;;;;;23.72;48.00;101422.03;2571161;30;138261;-39
2021/09/12 13:06:53;;;;;;;2.15;1.35;;;;;;;23.69;46.08;101419.84;2571576;30;137180;-37
2021/09/12 13:09:21;;;;;;;2.70;1.23;;;22.90;99.90;;;23.41;46.95;101422.22;2573393;30;138484;-40
2021/09/12 13:11:49;;;;;;;2.85;1.17;;;24.30;98.30;;;23.20;45.16;101427.00;2571743;30;137427;-37
2021/09/12 13:14:19;;;;;;;2.92;1.40;;;24.00;96.20;;;23.26;45.18;101423.97;2572578;30;138251;-39
2021/09/12 13:16:47;;;;;;;;;;;24.10;96.80;;;23.28;48.83;101434.78;2573686;30;137070;-37
2021/09/12 13:19:14;;;;;;;5.75;1.90;;;24.10;99.10;;;23.16;48.41;101426.72;2569659;30;138269;-39
2021/09/12 13:21:42;;;;;;;6.25;1.50;;;24.00;99.10;;;23.09;47.53;101420.63;2568132;30;137873;-39
2021/09/12 13:24:10;;;;;;;4.35;1.45;;;23.90;98.70;;;22.94;51.47;101418.72;2570134;30;137761;-39
2021/09/12 13:26:37;;;;;;;3.70;1.80;;;23.80;99.90;;;22.87;50.46;101432.94;2569783;30;137096;-42
2021/09/12 13:29:05;;;;;;;1.83;1.20;;;23.70;99.90;;;23.04;48.88;101426.22;2569736;30;137440;-36
2021/09/12 13:31:33;;;;;;;;;;;23.80;99.90;;;23.20;50.45;101427.00;2567473;30;137077;-39
2021/09/12 13:34:02;;;;;;;4.90;1.60;;;23.90;99.90;;;23.34;48.27;101433.69;2568206;30;138883;-37
2021/09/12 13:36:30;;;;;;;3.00;1.70;;;24.00;99.80;;;23.34;48.10;101425.31;2569029;30;136729;-37
2021/09/12 13:38:58;;;;;;;2.38;1.30;;;24.10;99.80;;;23.30;51.46;101424.19;2568629;30;136969;-39
2021/09/12 13:41:25;;;;;;;;;;;24.00;99.90;;;23.24;51.10;101422.53;2569372;30;137541;-37
2021/09/12 13:43:52;;;;;;;3.78;1.95;;;24.00;99.90;;;23.21;51.43;101420.31;2567940;30;137919;-39
2021/09/12 13:46:20;;;;;;;;;;;24.00;99.90;;;23.15;51.91;101424.25;2568684;30;137254;-39
2021/09/12 13:48:47;;;;;;;5.72;1.67;;;23.90;99.90;;;23.08;56.33;101419.81;2569555;30;137238;-39
2021/09/12 13:51:16;;;;;;;5.45;1.70;;;23.90;99.90;;;23.18;53.53;101415.31;2569251;30;137328;-39
2021/09/12 13:53:44;;;;;;;3.10;1.60;;;23.90;99.90;;;23.24;52.19;101412.25;2569687;30;137341;-37
2021/09/12 13:56:11;;;;;;;3.95;1.83;;;23.90;99.90;;;23.22;52.52;101413.63;2568598;30;137409;-35
2021/09/12 13:58:39;;;;;;;;;;;23.90;99.90;;;23.12;49.17;101415.34;2567574;30;139587;-40
2021/09/12 14:01:06;;;;;;;4.25;2.00;;;23.80;99.90;;;22.98;49.67;101415.13;2568262;30;136923;-36
2021/09/12 14:03:34;;;;;;;;;;;23.80;99.90;;;22.81;49.64;101404.31;2566946;30;138680;-39
2021/09/12 14:06:02;;;;;;;3.55;1.63;;;23.70;99.90;;;22.87;53.14;101407.09;2568211;30;137307;-39
2021/09/12 14:08:29;;;;;;;;;;;23.60;99.90;;;22.81;55.03;101412.66;2567051;30;137856;-39
2021/09/12 14:10:58;;;;;;;5.80;1.80;;;23.70;99.90;;;22.60;52.82;101419.38;2569111;30;137035;-38
2021/09/12 14:13:31;;;;;;;3.75;1.77;;;23.40;99.90;;;22.63;55.69;101421.59;2568837;30;138319;-38
2021/09/12 14:15:59;;;;;;;5.88;1.80;;;23.50;99.90;;;22.68;53.67;101410.44;2566784;30;138500;-39
2021/09/12 14:18:26;;;;;;;6.25;2.22;;;23.50;99.90;;;22.72;54.98;101422.66;2569010;30;137130;-39
2021/09/12 14:20:54;;;;;;;;;;;23.50;99.90;;;22.75;54.73;101413.75;2568696;30;136865;-39
2021/09/12 14:23:21;;;;;;;5.75;2.00;;;23.50;99.90;;;22.68;55.14;101404.88;2569468;30;139284;-38
2021/09/12 14:25:49;;;;;;;4.47;1.92;;;23.40;99.90;;;22.62;56.70;101404.06;2569354;30;136688;-39
2021/09/12 14:28:16;;;;;;;;;;;23.40;99.90;;;22.59;55.27;101407.41;2571530;30;137358;-41
2021/09/12 14:30:44;;;;;;;4.50;1.67;;;23.50;99.90;;;22.66;55.11;101398.78;2566789;30;137269;-38
2021/09/12 14:33:11;;;;;;;;;;;23.40;99.90;;;22.66;53.77;101410.72;2567613;30;138166;-38
2021/09/12 14:35:39;;;;;;;5.25;1.90;;;23.40;99.90;;;22.72;54.03;101396.81;2567929;30;137108;-38
2021/09/12 14:38:07;;;;;;;4.95;1.88;;;23.50;99.90;;;22.91;52.44;101402.63;2567208;30;138017;-36
2021/09/12 14:40:35;;;;;;;2.88;1.55;;;23.70;99.90;;;22.86;52.60;101394.28;2570431;30;137647;-40
2021/09/12 14:43:03;;;;;;;4.25;1.90;;;23.60;99.90;;;22.91;53.44;101399.84;2568975;30;137601;-39
2021/09/12 14:45:30;;;;;;;10.88;5.15;;;23.60;99.90;;;23.16;51.84;101398.09;2568075;30;137294;-36
2021/09/12 14:47:58;;;;;;;5.22;2.38;;;23.70;99.90;;;23.34;53.94;101393.84;2566791;30;137265;-36
2021/09/12 14:50:26;;;;;;;;;;;23.80;99.90;;;23.38;52.91;101383.81;2569169;30;137022;-37
2021/09/12 14:52:54;;;;;;;4.72;2.35;;;23.90;99.90;;;23.49;53.87;101381.81;2567666;30;136907;-39
2021/09/12 14:55:23;;;;;;;3.35;2.08;;;24.00;99.90;;;23.49;51.86;101379.03;2570021;30;136841;-36
2021/09/12 14:57:51;;;;;;;5.00;2.00;;;23.90;99.90;;;23.49;50.28;101379.88;2566636;30;138344;-36
2021/09/12 15:00:20;;;;;;;4.03;1.92;;;23.90;99.90;;;23.54;51.63;101379.00;2567626;30;136655;-39
2021/09/12 15:02:48;;;;;;;6.93;2.13;;;24.10;99.90;;;23.49;48.44;101381.81;2568228;30;137297;-37
2021/09/12 15:05:17;;;;;;;5.63;2.03;;;24.10;99.90;;;23.19;54.16;101375.25;2567180;30;137348;-40
2021/09/12 15:07:45;;;;;;;5.07;2.00;;;23.90;99.90;;;23.12;50.58;101373.63;2567299;30;138381;-36
2021/09/12 15:10:19;;;;;;;4.82;2.17;;;23.90;99.90;;;23.11;54.15;101380.28;2569486;30;136849;-39
2021/09/12 15:12:48;;;;;;;5.80;1.98;;;23.80;99.90;;;23.18;53.35;101385.53;2568102;30;137160;-39
2021/09/12 15:15:20;;;;;;;4.32;2.00;;;23.80;99.90;;;23.17;50.15;101378.31;2568650;30;137536;-38
2021/09/12 15:17:47;;;;;;;3.17;1.80;;;23.80;99.90;;;23.20;52.37;101386.09;2565906;30;138167;-39
2021/09/12 15:20:15;;;;;;;;;;;23.80;99.90;;;23.14;53.15;101390.00;2569404;30;137372;-40
2021/09/12 15:22:43;;;;;;;3.88;1.70;;;23.70;99.90;;;23.17;55.21;101378.31;2569532;30;138301;-39
2021/09/12 15:25:11;;;;;;;4.82;2.08;;;23.80;99.90;;;23.08;52.11;101383.66;2568982;30;137808;-38
2021/09/12 15:27:38;;;;;;;4.85;1.90;;;23.80;99.90;;;23.11;53.71;101385.88;2567940;30;139162;-38
2021/09/12 15:30:07;;;;;;;;;;;23.80;99.90;;;23.12;53.60;101381.97;2567963;30;137717;-39
2021/09/12 15:32:34;;;;;;;4.18;2.22;;;23.70;99.90;;;23.07;52.18;101373.59;2568663;30;136924;-39
2021/09/12 15:35:04;;;;;;;;;;;23.60;99.90;;;22.88;53.31;101376.19;2568916;30;138297;-39
2021/09/12 15:37:32;;;;;;;4.70;2.08;;;23.60;99.90;;;22.77;55.59;101375.38;2569838;30;138466;-39
2021/09/12 15:40:01;;;;;;;5.60;1.80;;;23.50;99.90;;;22.64;55.88;101375.97;2566417;30;138538;-39
2021/09/12 15:42:28;;;;;;;4.40;2.25;;;23.40;99.90;;;22.38;55.84;101379.59;2567952;30;138277;-40
2021/09/12 15:44:58;;;;;;;3.60;1.80;;;23.20;99.90;;;22.19;57.29;101376.53;2570020;30;136973;-39
2021/09/12 15:47:26;;;;;;;5.05;2.38;;;23.00;99.90;;;22.04;56.57;101376.56;2569589;30;137568;-36
2021/09/12 15:49:53;;;;;;;3.38;1.77;;;22.90;99.90;;;21.93;57.70;101362.63;2568278;30;137496;-38
2021/09/12 15:52:20;;;;;;;;;;;22.80;99.90;;;21.80;57.59;101364.00;2569560;30;138705;-40
2021/09/12 15:54:48;;;;;;;3.85;2.03;;;22.70;99.90;;;21.66;57.35;101362.91;2566861;30;137410;-38
2021/09/12 15:57:16;;;;;;;4.65;2.13;;;22.60;99.90;;;21.51;58.52;101366.44;2568929;30;139301;-39
2021/09/12 15:59:43;;;;;;;5.10;2.50;;;22.40;99.90;;;21.36;57.14;101365.28;2565884;30;137726;-39
2021/09/12 16:02:11;;;;;;;;;;;22.30;99.90;;;21.38;60.09;101370.56;2570556;30;136835;-39
2021/09/12 16:04:38;;;;;;;3.72;2.20;;;22.30;99.90;;;21.27;59.75;101364.16;2568792;30;137268;-39
2021/09/12 16:07:06;;;;;;;;;;;22.30;99.90;;;21.20;61.14;101367.16;2568375;30;138303;-40
2021/09/12 16:09:33;;;;;;;7.43;2.42;;;22.20;99.90;;;21.15;60.89;101369.06;2567014;30;136937;-39
2021/09/12 16:12:01;;;;;;;5.45;2.75;;;22.10;99.90;;;21.11;61.30;101363.25;2567427;30;137173;-36
2021/09/12 16:14:28;;;;;;;;;;;22.00;99.90;;;21.05;61.34;101358.75;2569307;30;137294;-37
2021/09/12 16:16:56;;;;;;;5.20;2.38;;;22.00;99.90;;;21.04;60.31;101355.19;2569209;30;136643;-39
2021/09/12 16:19:23;;;;;;;6.45;2.20;;;22.00;99.90;;;20.91;61.09;101348.19;2564869;30;137721;-37
2021/09/12 16:21:51;;;;;;;10.52;4.85;;;21.90;99.90;;;20.80;62.08;101352.00;2570242;30;138283;-39
2021/09/12 16:24:18;;;;;;;;;;;21.80;99.90;;;20.66;62.34;101348.81;2567876;30;137207;-39
2021/09/12 16:26:46;;;;;;;5.57;2.97;;;21.70;99.90;;;20.57;63.44;101345.75;2568505;30;137149;-41
2021/09/12 16:29:13;;;;;;;;;;;21.60;99.90;;;20.40;64.87;101345.88;2567216;30;137718;-39
2021/09/12 16:31:41;;;;;;;4.30;2.25;;;21.40;99.90;;;20.29;66.09;101341.38;2569555;30;138457;-39
2021/09/12 16:34:09;;;;;;;;;;;21.40;99.90;;;20.14;67.87;101351.25;2568108;30;136888;-40
2021/09/12 16:36:36;;;;;;;5.65;2.58;;;21.20;99.90;;;20.00;67.70;101352.78;2566646;30;137838;-40
2021/09/12 16:39:04;;;;;;;6.25;2.97;;;21.00;99.90;;;19.88;68.62;101352.94;2568991;30;137104;-39
2021/09/12 16:41:33;;;;;;;5.18;2.92;;;20.90;99.90;;;19.74;70.34;101342.28;2569921;30;137321;-39
2021/09/12 16:44:02;;;;;;;5.70;3.00;;;20.80;99.90;;;19.69;70.86;101339.47;2567905;30;138450;-39
2021/09/12 16:49:06;;;;;;;5.38;2.80;;;20.70;99.90;;;19.55;71.06;101337.13;2568832;30;136903;-39
2021/09/12 16:51:35;;;;;;;4.78;2.72;;;20.70;99.90;;;19.48;71.55;101336.47;2568529;30;138680;-39
2021/09/12 16:54:02;;;;;;;5.50;2.90;;;20.60;99.90;;;19.43;72.37;101339.19;2568934;30;137678;-39
2021/09/12 16:56:31;;;;;;;5.45;3.03;;;20.50;99.90;;;19.33;71.81;101339.09;2569278;30;137211;-39
2021/09/12 16:58:58;;;;;;;6.38;3.13;;;20.50;99.90;;;19.30;72.90;101336.84;2571892;30;136799;-39
2021/09/12 17:01:26;;;;;;;3.83;2.90;;;20.50;99.90;;;19.24;73.78;101344.25;2568504;30;136737;-39
2021/09/12 17:03:53;;;;;;;4.55;2.25;;;20.40;99.90;;;19.10;74.17;101327.22;2571231;30;137061;-41
2021/09/12 17:06:21;;;;;;;4.18;2.85;;;20.30;99.90;;;19.07;73.99;101334.06;2569433;30;138145;-39
2021/09/12 17:08:48;;;;;;;5.65;2.80;;;20.20;99.90;;;19.00;73.75;101338.16;2566319;30;138517;-39
2021/09/12 17:11:16;;;;;;;4.97;3.05;;;20.10;99.90;;;18.93;74.00;101338.31;2569953;30;136715;-40
2021/09/12 17:13:44;;;;;;;4.68;2.90;;;20.10;99.90;;;18.81;74.93;101336.47;2568251;30;137140;-39
2021/09/12 17:16:11;;;;;;;4.45;2.92;;;20.00;99.90;;;18.73;75.43;101339.69;2570628;30;138362;-39
2021/09/12 17:18:39;;;;;;;5.55;2.92;;;20.00;99.90;;;18.63;75.32;101334.84;2569547;30;137071;-38
2021/09/12 17:21:07;;;;;;;4.90;2.85;;;19.80;99.90;;;18.54;75.44;101341.91;2571100;30;137460;-37
2021/09/12 17:23:35;;;;;;;4.38;2.78;;;19.80;99.90;;;18.44;76.45;101334.31;2569055;30;137484;-41
2021/09/12 17:26:03;;;;;;;4.38;2.90;;;19.70;99.90;;;18.34;76.73;101339.69;2571503;30;137211;-39
2021/09/12 17:28:31;;;;;;;5.80;2.80;;;19.60;99.90;;;18.24;77.83;101338.41;2569715;30;138257;-44
2021/09/12 17:31:00;;;;;;;6.65;3.30;;;19.50;99.90;;;18.11;78.46;101338.78;2569358;30;136913;-40
2021/09/12 17:33:28;;;;;;;4.32;2.83;;;19.40;99.90;;;17.99;78.87;101338.81;2571111;30;137338;-40
2021/09/12 17:35:56;;;;;;;4.07;2.83;;;19.20;99.90;;;17.87;79.53;101346.31;2567336;30;138368;-39
2021/09/12 17:38:23;;;;;;;4.75;2.92;;;19.10;99.90;;;17.73;79.89;101337.53;2568573;30;136868;-40
2021/09/12 17:40:51;;;;;;;;;;;19.00;99.90;;;17.60;80.52;101339.50;2567347;30;137483;-40
2021/09/12 17:43:19;;;;;;;6.63;2.83;;;18.80;99.90;;;17.49;81.00;101348.66;2570112;30;137354;-40
2021/09/12 17:45:46;;;;;;;4.85;2.85;;;18.70;99.90;;;17.35;80.72;101343.47;2569813;30;137069;-40
2021/09/12 17:48:14;;;;;;;6.03;2.88;;;18.60;99.90;;;17.21;81.58;101353.09;2570571;30;137519;-40
2021/09/12 17:50:41;;;;;;;6.15;3.47;;;18.50;99.90;;;17.05;81.58;101349.16;2568588;30;137744;-39
2021/09/12 17:53:09;;;;;;;4.72;3.20;;;18.30;99.90;;;16.92;81.71;101353.00;2567519;30;137359;-40
2021/09/12 17:55:36;;;;;;;4.28;2.80;;;18.20;99.90;;;16.78;82.66;101339.50;2569075;30;137284;-40
2021/09/12 17:58:04;;;;;;;5.18;3.08;;;18.00;99.90;;;16.68;82.70;101347.53;2567242;30;138410;-40
2021/09/12 18:00:31;;;;;;;5.47;3.13;;;17.90;99.90;;;16.59;83.29;101340.72;2568717;30;137026;-40
2021/09/12 18:02:59;;;;;;;;;;;17.80;99.90;;;16.47;83.30;101344.31;2570982;30;136714;-40
2021/09/12 18:05:27;;;;;;;5.88;3.20;;;17.80;99.90;;;16.39;83.33;101347.41;2571593;30;139013;-40
2021/09/12 18:07:54;;;;;;;5.78;3.30;;;17.70;99.90;;;16.24;84.20;101345.97;2568715;30;137161;-40
2021/09/12 18:10:22;;;;;;;5.97;3.70;;;17.60;99.90;;;16.15;84.32;101354.81;2566932;30;137428;-40
2021/09/12 18:12:49;;;;;;;5.13;3.50;;;17.40;99.90;;;16.04;84.48;101359.22;2570212;30;137627;-40
2021/09/12 18:15:25;;;;;;;5.70;3.53;;;17.30;99.90;;;15.93;85.06;101360.88;2569947;30;137386;-40
2021/09/12 18:17:54;;;;;;;6.30;3.30;;;17.20;99.90;;;15.82;85.24;101366.09;2569593;30;136827;-40
2021/09/12 18:20:22;;;;;;;4.70;3.42;;;17.10;99.90;;;15.72;85.42;101365.81;2571329;30;138823;-40
2021/09/12 18:22:49;;;;;;;6.15;3.38;;;17.00;99.90;;;15.64;86.10;101368.88;2569728;30;136771;-40
2021/09/12 18:25:21;;;;;;;;;;;16.90;99.90;;;15.55;86.17;101368.38;2569016;30;139184;-40
2021/09/12 18:27:54;;;;;;;5.43;3.33;;;16.90;99.90;;;15.46;86.67;101370.59;2569903;30;136728;-40
2021/09/12 18:30:23;;;;;;;5.78;3.10;;;16.80;99.90;;;15.38;86.71;101371.78;2566960;30;138205;-40
2021/09/12 18:32:51;;;;;;;5.47;3.38;;;16.70;99.90;;;15.29;87.13;101373.16;2569886;30;137553;-40
2021/09/12 18:35:19;;;;;;;4.97;3.22;;;16.60;99.90;;;15.23;87.30;101383.16;2568123;30;139046;-40
2021/09/12 18:37:47;;;;;;;5.70;3.30;;;16.60;99.90;;;15.16;87.26;101381.56;2568272;30;137165;-39
2021/09/12 18:40:18;;;;;;;5.78;3.08;;;16.50;99.90;;;15.10;87.49;101395.13;2567984;30;138443;-40
2021/09/12 18:42:47;;;;;;;5.13;3.20;;;16.40;99.90;;;15.04;88.01;101389.75;2570172;30;137527;-42
2021/09/12 18:45:15;;;;;;;5.05;3.20;;;16.40;99.90;;;14.98;87.99;101394.22;2568096;30;137424;-40
2021/09/12 18:47:43;;;;;;;4.32;3.45;;;16.30;99.90;;;14.91;88.19;101390.72;2569207;30;136753;-40
2021/09/12 18:50:11;;;;;;;;;;;16.20;99.90;;;14.86;88.72;101399.63;2568323;30;137178;-39
2021/09/12 18:52:41;;;;;;;7.40;3.38;;;16.20;99.90;;;14.78;88.83;101397.19;2568743;30;136976;-40
2021/09/12 18:55:11;;;;;;;4.05;3.13;;;16.10;99.90;;;14.72;88.65;101400.81;2569962;30;138596;-40
2021/09/12 19:00:13;;;;;;;4.90;3.28;;;16.00;99.90;;;14.63;89.37;101400.28;2568544;30;138442;-39
2021/09/12 19:02:42;;;;;;;6.68;3.15;;;16.00;99.90;;;14.64;89.48;101415.69;2568289;30;136804;-41
2021/09/12 19:05:11;;;;;;;6.97;3.63;;;16.00;99.90;;;14.65;90.25;101406.38;2565982;30;138333;-39
2021/09/12 19:07:41;;;;;;;5.10;3.70;;;16.00;99.90;;;14.69;90.97;101407.59;2568579;30;138172;-39
2021/09/12 19:10:09;;;;;;;5.15;3.60;;;16.10;99.90;;;14.70;90.29;101411.16;2568301;30;137395;-39
2021/09/12 19:12:38;;;;;;;6.38;4.43;;;16.10;99.90;;;14.68;90.42;101406.75;2567521;30;137308;-39
2021/09/12 19:15:06;;;;;;;5.32;3.90;;;16.10;99.90;;;14.56;90.80;101413.19;2566049;30;137200;-39
2021/09/12 19:17:36;;;;;;;6.20;3.80;;;16.00;99.90;;;14.50;91.02;101410.28;2567942;30;137507;-39
2021/09/12 19:20:06;;;;;;;8.82;3.65;;;15.90;99.90;;;14.55;91.31;101411.53;2568049;30;138916;-39
2021/09/12 19:22:34;;;;;;;5.80;4.32;;;15.90;99.90;;;14.60;91.61;101414.47;2567959;30;137757;-37
2021/09/12 19:25:04;;;;;;;5.80;4.25;;;16.00;99.90;;;14.62;92.22;101415.91;2567625;30;138329;-39
2021/09/12 19:27:32;;;;;;;6.13;3.97;;;16.00;99.90;;;14.62;92.87;101426.06;2567570;30;138603;-41
2021/09/12 19:30:01;;;;;;;6.68;4.20;;;16.00;99.90;;;14.58;92.29;101422.91;2565468;30;138257;-39
2021/09/12 19:32:29;;;;;;;5.95;4.13;;;16.00;99.90;;;14.46;91.75;101428.28;2566756;30;137424;-39
2021/09/12 19:34:59;;;;;;;7.18;4.20;;;15.90;99.90;;;14.36;92.58;101422.47;2567864;30;137237;-41
2021/09/12 19:37:28;;;;;;;5.68;3.70;;;15.80;99.90;;;14.32;93.56;101421.22;2567969;30;136886;-39
2021/09/12 19:39:56;;;;;;;7.10;4.30;;;15.70;99.90;;;14.29;93.44;101413.41;2566627;30;138975;-39
2021/09/12 19:42:23;;;;;;;6.85;4.28;;;15.70;99.90;;;14.34;93.41;101424.59;2568674;30;137001;-40
2021/09/12 19:44:51;;;;;;;6.35;4.65;;;15.70;99.90;;;14.36;93.53;101426.03;2565749;30;137393;-39
2021/09/12 19:47:18;;;;;;;5.40;3.78;;;15.80;99.90;;;14.34;92.61;101422.69;2568376;30;137892;-39
2021/09/12 19:49:46;;;;;;;5.55;3.95;;;15.70;99.90;;;14.21;92.28;101428.28;2566656;30;137485;-39
2021/09/12 19:52:16;;;;;;;5.50;4.13;;;15.60;99.90;;;14.08;92.60;101423.72;2568678;30;137482;-41
2021/09/12 19:54:43;;;;;;;5.88;4.03;;;15.50;99.90;;;14.01;92.98;101428.41;2567517;30;137724;-39
2021/09/12 19:57:11;;;;;;;6.75;4.05;;;15.40;99.90;;;13.93;93.12;101435.00;2566894;30;137519;-39
2021/09/12 19:59:38;;;;;;;7.05;4.32;;;15.40;99.90;;;13.85;93.51;101432.50;2567167;30;138405;-39
2021/09/12 20:02:07;;;;;;;5.60;4.20;;;15.30;99.90;;;13.77;93.40;101423.47;2566769;30;136879;-39
2021/09/12 20:04:34;;;;;;;6.38;4.35;;;15.20;99.90;;;13.74;93.61;101428.53;2567125;30;137590;-41
2021/09/12 20:07:02;;;;;;;6.10;4.25;;;15.20;99.90;;;13.69;93.72;101426.47;2567365;30;138133;-41
2021/09/12 20:09:30;;;;;;;6.63;4.55;;;15.10;99.90;;;13.64;93.60;101427.13;2568037;30;138276;-39
2021/09/12 20:11:57;;;;;;;6.03;4.22;;;15.10;99.90;;;13.62;93.81;101432.00;2565570;30;138150;-39
2021/09/12 20:14:25;;;;;;;;;;;15.00;99.90;;;13.58;93.98;101428.00;2567522;30;137821;-39
2021/09/12 20:16:52;;;;;;;9.00;4.32;;;15.00;99.90;;;13.55;94.12;101431.19;2565535;30;138076;-39
2021/09/12 20:19:20;;;;;;;9.57;4.53;;;15.00;99.90;;;13.52;94.41;101426.97;2566271;30;138533;-39
2021/09/12 20:21:47;;;;;;;7.07;4.68;;;15.00;99.90;;;13.50;94.22;101428.22;2567660;30;137705;-39
2021/09/12 20:24:15;;;;;;;6.47;4.72;;;14.90;99.90;;;13.47;94.62;101442.38;2568007;30;137071;-41
2021/09/12 20:26:44;;;;;;;6.43;4.47;;;14.90;99.90;;;13.47;94.81;101434.16;2566911;30;138393;-39
2021/09/12 20:29:11;;;;;;;8.18;4.85;;;14.90;99.90;;;13.43;95.14;101438.41;2568261;30;138267;-42
2021/09/12 20:31:40;;;;;;;7.07;4.90;;;14.90;99.90;;;13.41;95.16;101440.47;2567697;30;136751;-39
2021/09/12 20:34:08;;;;;;;7.53;4.32;;;14.80;99.90;;;13.36;94.85;101439.22;2568101;30;137102;-39
2021/09/12 20:36:36;;;;;;;;;;;14.80;99.90;;;13.32;95.13;101437.13;2568388;30;137351;-40
2021/09/12 20:39:03;;;;;;;5.75;4.13;;;14.80;99.90;;;13.29;95.38;101432.09;2570126;30;137190;-39
2021/09/12 20:41:31;;;;;;;6.15;4.38;;;14.70;99.90;;;13.25;95.47;101434.41;2568644;30;136738;-39
2021/09/12 20:43:59;;;;;;;6.95;4.72;;;14.70;99.90;;;13.21;95.20;101430.41;2567357;30;137478;-39
2021/09/12 20:46:26;;;;;;;6.90;4.80;;;14.70;99.90;;;13.20;95.28;101437.81;2569041;30;137340;-40
2021/09/12 20:48:57;;;;;;;6.35;4.63;;;14.60;99.90;;;13.17;95.12;101442.88;2567971;30;139116;-39
2021/09/12 20:51:25;;;;;;;6.53;4.70;;;14.60;99.90;;;13.17;95.28;101440.97;2568383;30;137331;-40
2021/09/12 20:53:53;;;;;;;7.82;5.47;;;14.60;99.90;;;13.18;95.43;101441.81;2568069;30;137939;-39
2021/09/12 20:56:20;;;;;;;6.88;5.25;;;14.60;99.90;;;13.18;96.24;101439.06;2567572;30;137048;-43
2021/09/12 20:58:48;;;;;;;6.72;4.38;;;14.60;99.90;;;13.17;96.41;101451.94;2568093;30;137328;-39
2021/09/12 21:01:16;;;;;;;7.65;5.00;;;14.60;99.90;;;13.17;95.87;101451.09;2567980;30;137774;-39
2021/09/12 21:03:43;;;;;;;6.30;4.80;;;14.60;99.90;;;13.12;95.84;101445.41;2567986;30;139171;-39
2021/09/12 21:06:11;;;;;;;6.00;4.25;;;14.60;99.90;;;13.07;95.81;101449.66;2568536;30;136736;-43
2021/09/12 21:08:38;;;;;;;7.45;5.25;;;14.50;99.90;;;13.04;95.80;101447.34;2568455;30;137479;-39
2021/09/12 21:11:06;;;;;;;6.65;4.60;;;14.50;99.90;;;13.00;96.02;101451.56;2566494;30;136863;-39
2021/09/12 21:13:34;;;;;;;5.43;4.57;;;14.50;99.90;;;12.98;96.01;101448.16;2568807;30;138262;-40
2021/09/12 21:16:01;;;;;;;7.25;4.90;;;14.40;99.90;;;12.95;96.60;101449.47;2567717;30;137468;-39
2021/09/12 21:18:29;;;;;;;7.38;5.00;;;14.40;99.90;;;12.93;96.32;101447.97;2567102;30;137349;-39
2021/09/12 21:20:57;;;;;;;8.52;5.15;;;14.40;99.90;;;12.90;96.05;101449.25;2566801;30;137742;-39
2021/09/12 21:23:24;;;;;;;8.15;4.65;;;14.40;99.90;;;12.88;96.00;101450.50;2568088;30;138103;-39
2021/09/12 21:25:52;;;;;;;7.57;4.65;;;14.30;99.90;;;12.84;96.25;101449.25;2567000;30;137601;-39
2021/09/12 21:28:19;;;;;;;5.85;4.60;;;14.30;99.90;;;12.80;96.05;101446.09;2568822;30;137033;-40
2021/09/12 21:30:48;;;;;;;7.18;4.95;;;14.30;99.90;;;12.76;95.86;101455.78;2568011;30;138258;-39
2021/09/12 21:33:19;;;;;;;6.45;4.60;;;14.20;99.90;;;12.70;95.92;101445.69;2567015;30;139255;-39
2021/09/12 21:35:47;;;;;;;8.13;5.20;;;14.20;99.90;;;12.69;95.86;101450.31;2566591;30;137590;-41
2021/09/12 21:38:14;;;;;;;6.88;5.20;;;14.20;99.90;;;12.66;96.19;101451.59;2565293;30;138335;-39
2021/09/12 21:40:42;;;;;;;6.80;4.65;;;14.10;99.90;;;12.63;96.40;101460.22;2569430;30;136729;-39
2021/09/12 21:43:09;;;;;;;6.72;4.97;;;14.10;99.90;;;12.61;96.49;101465.06;2567367;30;138125;-39
2021/09/12 21:45:37;;;;;;;8.30;5.38;;;14.10;99.90;;;12.58;96.33;101470.13;2568422;30;137632;-41
2021/09/12 21:48:05;;;;;;;8.85;6.30;;;14.00;99.90;;;12.56;96.11;101464.84;2566190;30;137477;-39
2021/09/12 21:50:33;;;;;;;7.05;5.47;;;14.00;99.90;;;12.55;96.30;101467.81;2568647;30;136998;-39
2021/09/12 21:53:00;;;;;;;11.55;5.95;;;14.00;99.90;;;12.52;96.54;101469.06;2566519;30;139191;-39
2021/09/12 21:55:28;;;;;;;9.45;6.18;;;14.00;99.90;;;12.49;96.74;101473.06;2566876;30;137036;-39
2021/09/12 21:57:55;;;;;;;9.98;6.50;;;14.00;99.90;;;12.50;96.76;101479.38;2568169;30;138400;-41
2021/09/12 22:00:23;;;;;;;9.63;6.53;;;14.00;99.90;;;12.48;97.04;101481.47;2567437;30;136682;-39
2021/09/12 22:02:51;;;;;;;10.48;6.78;;;13.90;99.90;;;12.47;97.26;101480.66;2568056;30;138933;-39
2021/09/12 22:05:22;;;;;;;9.90;6.82;;;13.90;99.90;;;12.47;97.08;101479.78;2566080;30;136805;-39
2021/09/12 22:07:51;;;;;;;9.82;6.78;;;13.90;99.90;;;12.46;97.45;101481.66;2567716;30;138513;-40
2021/09/12 22:10:20;;;;;;;10.63;7.30;;;13.90;99.90;;;12.46;97.46;101486.31;2567469;30;136855;-39
2021/09/12 22:12:48;;;;;;;11.52;6.82;;;13.90;99.90;;;12.45;97.59;101487.38;2568539;30;139270;-39
2021/09/12 22:15:16;;;;;;;10.02;7.43;;;13.90;99.90;;;12.47;97.69;101485.25;2567162;30;137184;-39
2021/09/12 22:17:44;;;;;;;11.70;7.38;;;13.90;99.90;;;12.47;97.68;101486.13;2567929;30;138184;-41
2021/09/12 22:20:13;;;;;;;10.98;7.93;;;13.90;99.90;;;12.46;97.49;101487.16;2567240;30;137674;-40
2021/09/12 22:22:43;;;;;;;10.82;8.05;;;13.90;99.90;;;12.46;97.58;101484.41;2567391;30;136768;-41
2021/09/12 22:25:12;;;;;;;10.05;7.63;;;13.90;99.90;;;12.45;97.57;101490.09;2566133;30;137063;-39
2021/09/12 22:27:41;;;;;;;11.48;7.80;;;13.90;99.90;;;12.40;97.54;101484.44;2568874;30;137312;-38
2021/09/12 22:30:09;;;;;;;12.40;8.05;;;13.90;99.90;;;12.42;97.84;101485.88;2566076;30;137376;-39
2021/09/12 22:32:38;;;;;;;12.68;8.50;;;13.90;99.90;;;12.42;98.13;101487.78;2566861;30;139249;-42
2021/09/12 22:35:08;;;;;;;11.27;7.72;;;13.90;99.90;;;12.40;98.60;101490.72;2567046;30;137364;-39
2021/09/12 22:37:36;;;;;;;11.27;7.35;;;13.80;99.90;;;12.40;98.46;101495.38;2567977;30;138825;-40
2021/09/12 22:40:07;;;;;;;10.30;7.70;;;13.80;99.90;;;12.38;98.44;101495.56;2566853;30;136791;-43
2021/09/12 22:42:35;;;;;;;13.15;7.68;;;13.80;99.90;;;12.36;98.41;101498.53;2567876;30;138222;-41
2021/09/12 22:45:04;;;;;;;11.48;7.60;;;13.80;99.90;;;12.35;98.26;101493.25;2568239;30;138183;-39
2021/09/12 22:47:32;;;;;;;13.25;8.50;;;13.80;99.90;;;12.31;98.10;101491.97;2567624;30;138006;-43
2021/09/12 22:50:00;;;;;;;14.30;8.75;;;13.80;99.90;;;12.27;98.32;101487.97;2566487;30;137613;-39
2021/09/12 22:52:27;;;;;;;13.50;8.68;;;13.80;99.90;;;12.28;98.21;101500.59;2567153;30;138215;-39
2021/09/12 22:54:58;;;;;;;12.80;8.40;;;13.70;99.90;;;12.27;98.52;101509.88;2566290;30;137056;-41
2021/09/12 22:57:25;;;;;;;11.93;7.97;;;13.70;99.90;;;12.23;98.23;101502.06;2568218;30;137266;-41
2021/09/12 22:59:53;;;;;;;14.38;8.05;;;13.70;99.90;;;12.23;98.74;101506.69;2569397;30;137009;-42
2021/09/12 23:02:20;;;;;;;15.18;9.40;;;13.70;99.90;;;12.25;98.81;101510.06;2567904;30;139076;-44
2021/09/12 23:04:48;;;;;;;;;;;13.70;99.90;;;12.23;98.93;101504.81;2564517;31;137650;-41
2021/09/12 23:07:16;;;;;;;12.02;8.25;;;13.70;99.90;;;12.26;98.95;101510.91;2568820;30;137316;-41
2021/09/12 23:09:43;;;;;;;13.63;9.40;;;13.70;99.90;;;12.27;98.95;101513.44;2566306;30;136730;-41
2021/09/12 23:12:11;;;;;;;12.98;8.70;;;13.70;99.90;;;12.28;99.31;101509.66;2565917;30;138141;-43
2021/09/12 23:14:39;;;;;;;13.25;8.73;;;13.70;99.90;;;12.32;99.48;101512.81;2567419;30;137152;-41
2021/09/12 23:17:06;;;;;;;12.13;8.55;;;13.70;99.90;;;12.34;100.00;101514.31;2567468;30;137372;-41
2021/09/12 23:19:34;;;;;;;13.57;8.70;;;13.80;99.90;;;12.37;100.00;101511.16;2567983;30;136689;-41